Time;durP1;ratioP1;P1;durP2;ratioP2;P2;SDS_P1;SDS_P2;PMS_P1;PMS_P2;Temp;Humidity;BMP_temperature;BMP_pressure;BME280_temperature;BME280_humidity;BME280_pressure;Samples;Min_cycle;Max_cycle;Signal;HPM_P1;HPM_P2
2022/03/08 00:00:58;;;;;;;0.70;0.50;;;0.90;99.90;;;;;;4920296;29;20423;-71
2022/03/08 00:03:23;;;;;;;0.80;0.70;;;1.00;99.90;;;;;;4920804;29;20670;-70
2022/03/08 00:05:49;;;;;;;1.57;1.23;;;1.00;99.90;;;;;;4920477;29;20552;-71
2022/03/08 00:08:15;;;;;;;0.70;0.50;;;1.00;99.90;;;;;;4921341;29;20194;-70
2022/03/08 00:10:41;;;;;;;0.70;0.50;;;1.00;99.90;;;;;;4920478;28;20947;-70
2022/03/08 00:13:07;;;;;;;0.80;0.50;;;1.00;99.90;;;;;;4919968;29;20217;-70
2022/03/08 00:15:32;;;;;;;0.70;0.40;;;1.10;99.90;;;;;;4919170;29;20181;-70
2022/03/08 00:17:58;;;;;;;0.70;0.50;;;1.10;99.90;;;;;;4918463;29;20247;-71
2022/03/08 00:20:24;;;;;;;0.70;0.50;;;1.10;99.90;;;;;;4918045;29;20193;-71
2022/03/08 00:22:50;;;;;;;0.70;0.50;;;1.10;99.90;;;;;;4918093;29;20188;-70
2022/03/08 00:25:16;;;;;;;0.70;0.43;;;1.10;99.90;;;;;;4919630;29;20488;-70
2022/03/08 00:27:45;;;;;;;0.70;0.50;;;1.10;99.90;;;;;;4919954;29;20569;-71
2022/03/08 00:30:12;;;;;;;1.20;1.07;;;1.10;99.90;;;;;;4919382;29;20634;-70
2022/03/08 00:32:38;;;;;;;1.17;1.10;;;1.00;99.90;;;;;;4918536;29;20431;-71
2022/03/08 00:35:05;;;;;;;0.80;0.60;;;1.00;99.90;;;;;;4933772;29;20828;-70
2022/03/08 00:37:31;;;;;;;0.70;0.53;;;1.00;99.90;;;;;;4920836;29;20180;-71
2022/03/08 00:39:56;;;;;;;0.70;0.60;;;1.00;99.90;;;;;;4918706;29;20428;-71
2022/03/08 00:42:22;;;;;;;0.70;0.50;;;1.00;99.90;;;;;;4917495;29;20439;-70
2022/03/08 00:44:48;;;;;;;0.70;0.40;;;1.00;99.90;;;;;;4916783;29;20740;-70
2022/03/08 00:47:13;;;;;;;0.70;0.47;;;1.00;99.90;;;;;;4917931;29;20255;-71
2022/03/08 00:49:40;;;;;;;0.80;0.70;;;1.00;99.90;;;;;;4917807;29;20176;-71
2022/03/08 00:52:07;;;;;;;0.70;0.50;;;1.00;99.90;;;;;;4917399;29;20167;-70
2022/03/08 00:54:33;;;;;;;0.73;0.70;;;1.00;99.90;;;;;;4918217;29;20571;-71
2022/03/08 00:56:59;;;;;;;0.70;0.60;;;1.00;99.90;;;;;;4918542;29;20427;-71
2022/03/08 00:59:25;;;;;;;0.70;0.50;;;1.00;99.90;;;;;;4934523;28;20184;-70
2022/03/08 01:01:50;;;;;;;0.70;0.50;;;1.00;99.90;;;;;;4919545;29;20491;-71
2022/03/08 01:04:16;;;;;;;0.70;0.50;;;1.00;99.90;;;;;;4919227;29;20550;-71
2022/03/08 01:06:42;;;;;;;0.70;0.50;;;1.00;99.90;;;;;;4919278;29;20199;-71
2022/03/08 01:09:08;;;;;;;1.27;1.13;;;1.00;99.90;;;;;;4935220;29;20638;-70
2022/03/08 01:11:36;;;;;;;0.70;0.43;;;1.00;99.90;;;;;;4935376;29;20439;-70
2022/03/08 01:14:03;;;;;;;0.90;0.80;;;0.90;99.90;;;;;;4917913;29;20470;-70
2022/03/08 01:16:29;;;;;;;0.70;0.50;;;0.90;99.90;;;;;;4931612;29;20429;-70
2022/03/08 01:18:54;;;;;;;0.70;0.50;;;0.90;99.90;;;;;;4917319;29;20416;-70
2022/03/08 01:21:20;;;;;;;0.70;0.50;;;0.90;99.90;;;;;;4917137;29;20175;-70
2022/03/08 01:23:45;;;;;;;0.70;0.40;;;0.80;99.90;;;;;;4916513;29;20216;-70
2022/03/08 01:26:11;;;;;;;0.70;0.50;;;0.80;99.90;;;;;;4916697;29;20181;-70
2022/03/08 01:28:37;;;;;;;0.70;0.40;;;0.80;99.90;;;;;;4917039;29;20586;-70
2022/03/08 01:31:02;;;;;;;1.00;0.60;;;0.80;99.90;;;;;;4918772;29;20441;-71
2022/03/08 01:33:28;;;;;;;0.70;0.50;;;0.70;99.90;;;;;;4918450;29;20197;-71
2022/03/08 01:35:55;;;;;;;0.70;0.50;;;0.70;99.90;;;;;;4917983;29;20588;-71
2022/03/08 01:38:21;;;;;;;1.23;0.63;;;0.70;99.90;;;;;;4918352;29;20259;-71
2022/03/08 01:40:47;;;;;;;0.70;0.50;;;0.60;99.90;;;;;;4918008;29;20445;-71
2022/03/08 01:43:12;;;;;;;0.70;0.50;;;0.60;99.90;;;;;;4931720;29;20196;-71
2022/03/08 01:45:38;;;;;;;0.70;0.50;;;0.60;99.90;;;;;;4917507;29;20176;-71
2022/03/08 01:48:04;;;;;;;0.70;0.50;;;0.50;99.90;;;;;;4918548;29;20173;-70
2022/03/08 01:50:29;;;;;;;0.70;0.50;;;0.50;99.90;;;;;;4918259;29;20169;-71
2022/03/08 01:52:56;;;;;;;0.70;0.50;;;0.50;99.90;;;;;;4919763;29;20252;-71
2022/03/08 01:55:22;;;;;;;0.70;0.50;;;0.50;99.90;;;;;;4919420;29;20179;-70
2022/03/08 01:57:50;;;;;;;0.70;0.50;;;0.40;99.90;;;;;;4919371;29;20412;-71
2022/03/08 02:00:20;;;;;;;0.70;0.50;;;0.40;99.90;;;;;;4919530;29;20424;-71
2022/03/08 02:02:46;;;;;;;0.70;0.50;;;0.30;99.90;;;;;;4919110;29;20439;-70
2022/03/08 02:05:12;;;;;;;0.70;0.60;;;0.20;99.90;;;;;;4918358;29;20463;-70
2022/03/08 02:07:38;;;;;;;0.70;0.40;;;0.20;99.90;;;;;;4919276;29;20430;-70
2022/03/08 02:10:06;;;;;;;1.13;1.03;;;0.20;99.90;;;;;;4919476;29;20409;-71
2022/03/08 02:12:32;;;;;;;0.70;0.40;;;0.20;99.90;;;;;;4917468;29;20440;-71
2022/03/08 02:14:58;;;;;;;0.70;0.40;;;0.20;99.90;;;;;;4918108;29;20486;-71
2022/03/08 02:17:24;;;;;;;0.70;0.50;;;0.20;99.90;;;;;;4916908;29;20182;-71
2022/03/08 02:19:50;;;;;;;0.80;0.70;;;0.30;99.90;;;;;;4917077;29;20801;-71
2022/03/08 02:22:15;;;;;;;0.70;0.40;;;0.30;99.90;;;;;;4915970;29;20470;-71
2022/03/08 02:24:41;;;;;;;0.80;0.73;;;0.30;99.90;;;;;;4931451;29;20203;-70
2022/03/08 02:27:08;;;;;;;0.70;0.50;;;0.40;99.90;;;;;;4930660;29;20211;-70
2022/03/08 02:29:33;;;;;;;0.70;0.50;;;0.30;99.90;;;;;;4915879;29;20191;-70
2022/03/08 02:31:59;;;;;;;0.70;0.50;;;0.30;99.90;;;;;;4916053;29;20456;-70
2022/03/08 02:34:24;;;;;;;0.70;0.50;;;0.40;99.90;;;;;;4915822;29;20327;-70
2022/03/08 02:37:04;;;;;;;0.70;0.50;;;0.30;99.90;;;;;;4915676;29;20211;-71
2022/03/08 02:39:30;;;;;;;0.80;0.80;;;0.40;99.90;;;;;;4930822;28;20175;-71
2022/03/08 02:41:56;;;;;;;0.70;0.50;;;0.40;99.90;;;;;;4928241;28;20424;-70
2022/03/08 02:44:22;;;;;;;0.70;0.50;;;0.40;99.90;;;;;;4897950;29;20334;-70
2022/03/08 02:46:47;;;;;;;0.70;0.50;;;0.40;99.90;;;;;;4897774;29;20534;-71
2022/03/08 02:49:13;;;;;;;0.70;0.50;;;0.40;99.90;;;;;;4897687;29;20962;-70
2022/03/08 02:51:38;;;;;;;0.70;0.40;;;0.40;99.90;;;;;;4899680;29;20196;-71
2022/03/08 02:54:04;;;;;;;0.70;0.50;;;0.40;99.90;;;;;;4916418;29;20223;-71
2022/03/08 02:56:30;;;;;;;0.70;0.50;;;0.50;99.90;;;;;;4916567;29;20227;-71
2022/03/08 02:58:55;;;;;;;0.70;0.50;;;0.50;99.90;;;;;;4917003;29;20174;-71
2022/03/08 03:01:21;;;;;;;0.70;0.60;;;0.50;99.90;;;;;;4916389;29;20460;-71
2022/03/08 03:03:47;;;;;;;0.70;0.40;;;0.50;99.90;;;;;;4916894;29;20585;-71
2022/03/08 03:06:12;;;;;;;1.70;1.60;;;0.50;99.90;;;;;;4916610;29;20222;-71
2022/03/08 03:08:38;;;;;;;0.70;0.50;;;0.50;99.90;;;;;;4916500;29;20208;-71
2022/03/08 03:11:03;;;;;;;0.80;0.73;;;0.50;99.90;;;;;;4916555;29;20682;-71
2022/03/08 03:13:29;;;;;;;0.70;0.43;;;0.50;99.90;;;;;;4914782;29;20615;-71
2022/03/08 03:15:54;;;;;;;1.53;0.77;;;0.50;99.90;;;;;;4915790;29;20184;-71
2022/03/08 03:18:20;;;;;;;0.70;0.50;;;0.50;99.90;;;;;;4916243;29;20183;-70
2022/03/08 03:20:46;;;;;;;0.90;0.90;;;0.50;99.90;;;;;;4916025;29;20175;-71
2022/03/08 03:23:11;;;;;;;0.70;0.40;;;0.50;99.90;;;;;;4915820;29;20212;-71
2022/03/08 03:25:37;;;;;;;0.70;0.47;;;0.50;99.90;;;;;;4930549;29;20236;-70
2022/03/08 03:28:02;;;;;;;0.70;0.40;;;0.50;99.90;;;;;;4916271;29;20225;-71
2022/03/08 03:30:28;;;;;;;0.70;0.50;;;0.50;99.90;;;;;;4916079;29;20167;-71
2022/03/08 03:32:54;;;;;;;0.97;0.97;;;0.40;99.90;;;;;;4916159;29;20561;-71
2022/03/08 03:35:19;;;;;;;0.70;0.50;;;0.40;99.90;;;;;;4915681;29;20179;-71
2022/03/08 03:37:45;;;;;;;0.80;0.70;;;0.40;99.90;;;;;;4916288;29;20173;-71
2022/03/08 03:40:11;;;;;;;0.70;0.50;;;0.40;99.90;;;;;;4916190;29;20173;-71
2022/03/08 03:42:37;;;;;;;0.70;0.40;;;0.40;99.90;;;;;;4914962;28;21036;-71
2022/03/08 03:45:05;;;;;;;1.13;1.03;;;0.40;99.90;;;;;;4930558;28;20571;-71
2022/03/08 03:47:30;;;;;;;0.70;0.40;;;0.40;99.90;;;;;;4916092;29;20427;-71
2022/03/08 03:49:56;;;;;;;0.70;0.40;;;0.30;99.90;;;;;;4916251;29;20400;-71
2022/03/08 03:52:21;;;;;;;0.70;0.43;;;0.20;99.90;;;;;;4916187;29;20175;-71
2022/03/08 03:54:47;;;;;;;0.70;0.40;;;0.20;99.90;;;;;;4914576;29;20168;-70
2022/03/08 03:57:12;;;;;;;0.70;0.43;;;0.20;99.90;;;;;;4915944;29;20199;-71
2022/03/08 03:59:39;;;;;;;0.70;0.50;;;0.10;99.90;;;;;;4930661;28;20642;-71
2022/03/08 04:02:05;;;;;;;0.70;0.40;;;0.10;99.90;;;;;;4930276;28;20183;-71
2022/03/08 04:04:30;;;;;;;1.20;1.17;;;0.10;99.90;;;;;;4915831;29;20526;-71
2022/03/08 04:06:56;;;;;;;0.70;0.40;;;0.20;99.90;;;;;;4917576;29;20415;-71
2022/03/08 04:09:22;;;;;;;0.70;0.50;;;0.20;99.90;;;;;;4919547;29;20198;-71
2022/03/08 04:11:47;;;;;;;0.70;0.50;;;0.20;99.90;;;;;;4919574;29;20175;-71
2022/03/08 04:14:15;;;;;;;1.80;1.70;;;0.20;99.90;;;;;;4917693;29;20576;-71
2022/03/08 04:16:40;;;;;;;0.70;0.50;;;0.20;99.90;;;;;;4933756;28;20179;-71
2022/03/08 04:19:06;;;;;;;0.70;0.40;;;0.30;99.90;;;;;;4918137;29;21014;-71
2022/03/08 04:21:32;;;;;;;0.70;0.50;;;0.30;99.90;;;;;;4933853;28;20187;-71
2022/03/08 04:23:59;;;;;;;0.70;0.40;;;0.30;99.90;;;;;;4918838;29;20239;-71
2022/03/08 04:26:24;;;;;;;0.70;0.50;;;0.30;99.90;;;;;;4933900;29;20178;-71
2022/03/08 04:28:50;;;;;;;0.70;0.40;;;0.30;99.90;;;;;;4919235;29;20483;-71
2022/03/08 04:31:16;;;;;;;0.70;0.50;;;0.30;99.90;;;;;;4917957;29;20717;-70
2022/03/08 04:33:41;;;;;;;0.70;0.47;;;0.30;99.90;;;;;;4933557;29;20199;-71
2022/03/08 04:36:07;;;;;;;0.70;0.50;;;0.30;99.90;;;;;;4918696;29;20192;-70
2022/03/08 04:38:32;;;;;;;0.70;0.40;;;0.30;99.90;;;;;;4919406;29;20573;-71
2022/03/08 04:41:01;;;;;;;0.70;0.40;;;0.30;99.90;;;;;;4919003;29;20235;-71
2022/03/08 04:43:28;;;;;;;0.70;0.50;;;0.30;99.90;;;;;;4933483;28;20195;-71
2022/03/08 04:45:53;;;;;;;0.70;0.50;;;0.20;99.90;;;;;;4918717;29;20416;-71
2022/03/08 04:48:19;;;;;;;0.70;0.40;;;0.20;99.90;;;;;;4917445;29;20428;-71
2022/03/08 04:50:44;;;;;;;0.70;0.50;;;0.20;99.90;;;;;;4918881;29;20583;-70
2022/03/08 04:53:10;;;;;;;0.70;0.50;;;0.20;99.90;;;;;;4918883;29;20534;-71
2022/03/08 04:55:36;;;;;;;0.70;0.50;;;0.20;99.90;;;;;;4917321;28;20261;-71
2022/03/08 04:58:01;;;;;;;0.70;0.50;;;0.30;99.90;;;;;;4933538;29;20231;-71
2022/03/08 05:00:27;;;;;;;0.70;0.40;;;0.30;99.90;;;;;;4918521;29;20874;-71
2022/03/08 05:02:53;;;;;;;0.70;0.47;;;0.30;99.90;;;;;;4918742;29;20206;-71
2022/03/08 05:05:18;;;;;;;0.70;0.50;;;0.30;99.90;;;;;;4917954;29;20263;-71
2022/03/08 05:07:44;;;;;;;0.70;0.50;;;0.30;99.90;;;;;;4918473;29;20179;-70
2022/03/08 05:10:12;;;;;;;2.20;2.10;;;0.30;99.90;;;;;;4918665;29;20380;-70
2022/03/08 05:12:38;;;;;;;0.70;0.40;;;0.30;99.90;;;;;;4918736;29;20199;-70
2022/03/08 05:15:05;;;;;;;0.70;0.50;;;0.30;99.90;;;;;;4918129;29;20407;-70
2022/03/08 05:17:31;;;;;;;0.70;0.40;;;0.30;99.90;;;;;;4916949;29;20420;-70
2022/03/08 05:19:56;;;;;;;0.70;0.43;;;0.30;99.90;;;;;;4918528;29;20416;-70
2022/03/08 05:22:22;;;;;;;0.70;0.47;;;0.30;99.90;;;;;;4918220;29;20180;-70
2022/03/08 05:24:48;;;;;;;0.70;0.50;;;0.30;99.90;;;;;;4918190;29;20204;-70
2022/03/08 05:27:13;;;;;;;0.70;0.50;;;0.30;99.90;;;;;;4918097;29;20206;-70
2022/03/08 05:29:39;;;;;;;0.70;0.40;;;0.30;99.90;;;;;;4932894;29;20782;-70
2022/03/08 05:32:05;;;;;;;0.70;0.47;;;0.30;99.90;;;;;;4918081;29;20169;-69
2022/03/08 05:34:30;;;;;;;0.70;0.47;;;0.30;99.90;;;;;;4917109;29;20674;-70
2022/03/08 05:36:56;;;;;;;0.70;0.40;;;0.30;99.90;;;;;;4917748;29;20501;-70
2022/03/08 05:39:22;;;;;;;0.70;0.40;;;0.30;99.90;;;;;;4917977;29;20184;-70
2022/03/08 05:41:48;;;;;;;1.33;1.17;;;0.30;99.90;;;;;;4918068;29;20191;-70
2022/03/08 05:44:14;;;;;;;0.80;0.67;;;0.30;99.90;;;;;;4918199;29;20988;-70
2022/03/08 05:46:40;;;;;;;1.27;1.17;;;0.30;99.90;;;;;;4917614;29;20413;-70
2022/03/08 05:49:06;;;;;;;0.70;0.40;;;0.20;99.90;;;;;;4918018;29;20423;-70
2022/03/08 05:51:31;;;;;;;0.83;0.83;;;0.20;99.90;;;;;;4932450;29;20171;-70
2022/03/08 05:53:57;;;;;;;0.70;0.40;;;0.30;99.90;;;;;;4918024;29;20198;-70
2022/03/08 05:56:23;;;;;;;0.80;0.80;;;0.30;99.90;;;;;;4917216;29;20176;-70
2022/03/08 05:58:49;;;;;;;0.70;0.50;;;0.30;99.90;;;;;;4916383;29;20178;-70
2022/03/08 06:01:14;;;;;;;0.70;0.50;;;0.30;99.90;;;;;;4917424;29;20646;-70
2022/03/08 06:03:40;;;;;;;0.70;0.40;;;0.40;99.90;;;;;;4917622;29;20459;-70
2022/03/08 06:06:05;;;;;;;0.70;0.40;;;0.30;99.90;;;;;;4917221;29;20234;-70
2022/03/08 06:08:31;;;;;;;0.90;0.90;;;0.40;99.90;;;;;;4932083;29;20239;-70
2022/03/08 06:10:56;;;;;;;0.70;0.50;;;0.40;99.90;;;;;;4917541;29;20224;-70
2022/03/08 06:13:22;;;;;;;0.70;0.40;;;0.40;99.90;;;;;;4917287;29;20211;-70
2022/03/08 06:15:48;;;;;;;0.70;0.40;;;0.40;99.90;;;;;;4917215;29;20743;-70
2022/03/08 06:18:14;;;;;;;0.70;0.40;;;0.40;99.90;;;;;;4917336;29;20499;-70
2022/03/08 06:20:39;;;;;;;0.70;0.40;;;0.40;99.90;;;;;;4917308;29;20168;-70
2022/03/08 06:23:05;;;;;;;1.57;1.47;;;0.50;99.90;;;;;;4917198;29;20567;-70
2022/03/08 06:25:31;;;;;;;0.70;0.43;;;0.50;99.90;;;;;;4916802;29;20685;-71
2022/03/08 06:27:56;;;;;;;0.70;0.40;;;0.60;99.90;;;;;;4917372;29;20180;-70
2022/03/08 06:30:22;;;;;;;0.70;0.60;;;0.60;99.90;;;;;;4915469;28;20208;-70
2022/03/08 06:32:47;;;;;;;0.70;0.50;;;0.70;99.90;;;;;;4917152;29;20561;-70
2022/03/08 06:35:13;;;;;;;0.80;0.60;;;0.70;99.90;;;;;;4931859;28;20179;-70
2022/03/08 06:37:39;;;;;;;0.70;0.40;;;0.80;99.90;;;;;;4931927;28;20186;-70
2022/03/08 06:40:06;;;;;;;0.70;0.40;;;0.80;99.90;;;;;;4917104;29;20210;-70
2022/03/08 06:42:31;;;;;;;0.70;0.50;;;0.90;99.90;;;;;;4915901;29;20203;-70
2022/03/08 06:44:57;;;;;;;0.70;0.40;;;0.90;99.90;;;;;;4917287;29;20517;-70
2022/03/08 06:47:22;;;;;;;0.70;0.50;;;1.00;99.90;;;;;;4931528;29;20182;-70
2022/03/08 06:49:48;;;;;;;0.70;0.47;;;1.00;99.90;;;;;;4917048;29;20183;-70
2022/03/08 06:52:14;;;;;;;0.80;0.67;;;1.10;99.90;;;;;;4917096;29;20204;-70
2022/03/08 06:54:40;;;;;;;0.70;0.60;;;1.20;99.90;;;;;;4931751;28;20662;-70
2022/03/08 06:57:06;;;;;;;0.70;0.50;;;1.30;99.90;;;;;;4916884;29;20658;-70
2022/03/08 06:59:31;;;;;;;0.70;0.50;;;1.40;99.90;;;;;;4917015;29;20520;-70
2022/03/08 07:01:57;;;;;;;0.70;0.50;;;1.40;99.90;;;;;;4917056;29;20419;-70
2022/03/08 07:04:23;;;;;;;0.70;0.43;;;1.50;99.90;;;;;;4916829;29;20575;-72
2022/03/08 07:06:49;;;;;;;0.80;0.70;;;1.60;99.90;;;;;;4915308;28;20230;-70
2022/03/08 07:09:15;;;;;;;0.70;0.50;;;1.70;99.90;;;;;;4916693;29;20443;-70
2022/03/08 07:11:40;;;;;;;1.43;1.00;;;1.70;99.90;;;;;;4917384;29;20535;-72
2022/03/08 07:14:07;;;;;;;0.70;0.40;;;1.80;99.90;;;;;;4916883;29;20197;-69
2022/03/08 07:16:33;;;;;;;0.70;0.50;;;1.90;99.90;;;;;;4931429;28;20746;-69
2022/03/08 07:18:58;;;;;;;0.70;0.57;;;1.90;99.90;;;;;;4915387;29;20434;-72
2022/03/08 07:21:24;;;;;;;0.70;0.50;;;2.00;99.90;;;;;;4931554;29;20458;-72
2022/03/08 07:23:50;;;;;;;0.90;0.80;;;2.10;99.90;;;;;;4915405;29;20204;-72
2022/03/08 07:26:15;;;;;;;1.10;1.00;;;2.10;99.90;;;;;;4916565;29;20408;-69
2022/03/08 07:28:41;;;;;;;0.70;0.40;;;2.30;99.90;;;;;;4917504;29;20728;-70
2022/03/08 07:31:06;;;;;;;0.70;0.50;;;2.30;99.90;;;;;;4917646;29;20807;-69
2022/03/08 07:33:32;;;;;;;0.70;0.50;;;2.50;99.90;;;;;;4930717;28;20688;-72
2022/03/08 07:35:58;;;;;;;1.10;1.00;;;2.60;99.90;;;;;;4916037;29;20193;-72
2022/03/08 07:38:24;;;;;;;0.70;0.50;;;2.80;99.90;;;;;;4915986;29;20186;-72
2022/03/08 07:40:49;;;;;;;0.70;0.60;;;3.20;99.90;;;;;;4915337;29;20449;-72
2022/03/08 07:43:15;;;;;;;2.00;1.27;;;3.80;99.90;;;;;;4920088;29;20196;-72
2022/03/08 07:45:41;;;;;;;1.87;1.00;;;4.50;99.90;;;;;;4934597;29;20186;-71
2022/03/08 07:48:07;;;;;;;4.50;1.37;;;5.40;99.90;;;;;;4918961;29;20649;-72
2022/03/08 07:50:34;;;;;;;0.70;0.50;;;6.20;96.30;;;;;;4934764;28;20434;-72
2022/03/08 07:52:59;;;;;;;1.30;1.20;;;7.00;91.10;;;;;;4921050;29;20238;-70
2022/03/08 07:55:26;;;;;;;4.10;3.80;;;7.80;86.90;;;;;;4920238;29;20762;-70
2022/03/08 07:57:52;;;;;;;3.33;0.90;;;8.50;80.50;;;;;;4931072;28;20199;-70
2022/03/08 08:00:18;;;;;;;0.80;0.70;;;9.20;72.70;;;;;;4901287;29;20412;-70
2022/03/08 08:02:43;;;;;;;1.20;1.10;;;9.80;67.20;;;;;;4901287;29;20681;-70
2022/03/08 08:05:09;;;;;;;1.80;1.70;;;10.30;58.80;;;;;;4915681;29;20299;-70
2022/03/08 08:07:35;;;;;;;0.80;0.70;;;10.70;57.50;;;;;;4909820;29;20183;-70
2022/03/08 08:10:01;;;;;;;4.00;1.10;;;11.10;55.70;;;;;;4919880;29;20408;-70
2022/03/08 08:12:26;;;;;;;1.23;1.13;;;11.40;53.00;;;;;;4919776;29;20188;-70
2022/03/08 08:14:52;;;;;;;1.97;1.53;;;11.70;51.60;;;;;;4919986;29;20430;-70
2022/03/08 08:17:18;;;;;;;3.33;1.30;;;12.10;51.30;;;;;;4919221;29;20180;-70
2022/03/08 08:19:43;;;;;;;0.80;0.60;;;12.40;50.50;;;;;;4920096;29;20199;-70
2022/03/08 08:22:09;;;;;;;2.07;1.73;;;12.70;48.80;;;;;;4934127;28;20945;-70
2022/03/08 08:24:35;;;;;;;1.47;1.13;;;13.10;47.40;;;;;;4919644;29;20561;-70
2022/03/08 08:27:01;;;;;;;1.63;0.80;;;13.50;47.00;;;;;;4930518;28;20180;-70
2022/03/08 08:29:26;;;;;;;1.90;1.57;;;13.90;46.60;;;;;;4913778;29;20432;-71
2022/03/08 08:31:52;;;;;;;1.67;1.20;;;14.40;45.50;;;;;;4919424;29;20167;-70
2022/03/08 08:34:18;;;;;;;1.67;1.33;;;14.90;43.90;;;;;;4919445;29;20202;-70
2022/03/08 08:36:47;;;;;;;1.37;1.27;;;15.20;43.20;;;;;;4919171;29;20182;-70
2022/03/08 08:39:14;;;;;;;1.20;1.10;;;15.70;43.00;;;;;;4918198;29;20179;-70
2022/03/08 08:41:41;;;;;;;1.10;1.00;;;16.10;41.50;;;;;;4919766;29;20435;-70
2022/03/08 08:44:07;;;;;;;1.63;1.53;;;16.40;41.00;;;;;;4918663;29;20479;-71
2022/03/08 08:46:32;;;;;;;1.90;1.03;;;16.70;40.30;;;;;;4918076;29;20428;-71
2022/03/08 08:48:58;;;;;;;4.10;3.03;;;17.20;39.90;;;;;;4919562;29;20203;-70
2022/03/08 08:51:24;;;;;;;2.00;1.90;;;17.60;39.20;;;;;;4920182;29;20171;-70
2022/03/08 08:53:49;;;;;;;1.37;1.00;;;17.90;38.70;;;;;;4935867;28;20439;-70
2022/03/08 08:56:15;;;;;;;3.77;2.57;;;18.10;37.90;;;;;;4935194;28;20190;-71
2022/03/08 08:58:41;;;;;;;1.63;1.53;;;18.30;37.50;;;;;;4921150;29;20221;-70
2022/03/08 09:01:07;;;;;;;2.33;2.13;;;18.50;37.30;;;;;;4919764;29;20416;-70
2022/03/08 09:03:32;;;;;;;1.00;0.90;;;18.70;36.60;;;;;;4917948;29;20198;-71
2022/03/08 09:05:58;;;;;;;1.10;0.80;;;19.10;37.10;;;;;;4917568;29;20175;-71
2022/03/08 09:08:24;;;;;;;1.30;1.10;;;19.30;36.00;;;;;;4917836;29;20183;-70
2022/03/08 09:10:51;;;;;;;1.43;1.33;;;19.60;36.30;;;;;;4917738;29;20171;-71
2022/03/08 09:13:17;;;;;;;1.63;1.10;;;19.90;35.20;;;;;;4917842;29;20605;-71
2022/03/08 09:15:42;;;;;;;1.30;1.17;;;20.20;34.80;;;;;;4917369;29;20507;-70
2022/03/08 09:18:09;;;;;;;2.00;1.60;;;20.30;34.60;;;;;;4917806;29;20555;-71
2022/03/08 09:20:34;;;;;;;1.50;1.40;;;20.30;33.80;;;;;;4917702;29;20263;-71
2022/03/08 09:23:00;;;;;;;1.97;1.30;;;20.60;34.10;;;;;;4917975;29;20885;-71
2022/03/08 09:25:27;;;;;;;2.30;1.33;;;20.80;33.30;;;;;;4917355;29;20199;-71
2022/03/08 09:27:52;;;;;;;1.40;1.30;;;20.80;32.80;;;;;;4916452;29;20475;-71
2022/03/08 09:30:18;;;;;;;2.50;1.40;;;20.90;32.70;;;;;;4918589;29;21000;-70
2022/03/08 09:32:44;;;;;;;1.77;1.10;;;21.00;32.70;;;;;;4917423;29;20247;-70
2022/03/08 09:35:09;;;;;;;1.30;1.20;;;21.20;32.60;;;;;;4917359;29;20176;-70
2022/03/08 09:37:35;;;;;;;2.50;1.50;;;21.10;31.40;;;;;;4917354;29;20174;-70
2022/03/08 09:40:02;;;;;;;1.30;1.20;;;21.20;32.10;;;;;;4917222;29;20183;-71
2022/03/08 09:42:30;;;;;;;2.03;1.53;;;21.40;31.40;;;;;;4917395;29;20565;-71
2022/03/08 09:44:56;;;;;;;3.27;1.47;;;21.50;31.20;;;;;;4917195;29;20503;-71
2022/03/08 09:47:22;;;;;;;1.30;1.20;;;21.80;30.70;;;;;;4916660;29;20428;-70
2022/03/08 09:49:48;;;;;;;1.30;1.20;;;21.90;30.30;;;;;;4918024;29;20174;-70
2022/03/08 09:52:14;;;;;;;2.03;1.10;;;21.50;29.60;;;;;;4918133;29;20420;-70
2022/03/08 09:54:43;;;;;;;1.20;1.10;;;21.30;29.70;;;;;;4916351;29;20895;-70
2022/03/08 09:57:11;;;;;;;2.50;1.77;;;21.20;29.70;;;;;;4916806;29;20167;-71
2022/03/08 09:59:37;;;;;;;1.43;1.33;;;21.00;29.70;;;;;;4917031;29;20415;-71
2022/03/08 10:02:03;;;;;;;2.40;1.07;;;20.80;29.80;;;;;;4917722;29;20786;-69
2022/03/08 10:04:29;;;;;;;2.60;1.43;;;20.80;30.30;;;;;;4917372;29;20211;-70
2022/03/08 10:06:56;;;;;;;1.97;1.37;;;20.90;29.80;;;;;;4919099;29;20463;-70
2022/03/08 10:09:23;;;;;;;2.30;2.10;;;20.70;29.50;;;;;;4918834;29;20191;-71
2022/03/08 10:11:55;;;;;;;5.50;2.43;;;20.40;29.80;;;;;;4918474;29;20418;-70
2022/03/08 10:14:39;;;;;;;3.93;2.80;;;20.40;30.20;;;;;;4916119;29;20443;-71
2022/03/08 10:17:06;;;;;;;1.50;1.33;;;20.80;30.40;;;;;;4916537;29;20420;-70
2022/03/08 10:19:44;;;;;;;1.30;1.13;;;21.30;30.10;;;;;;4915417;29;20435;-71
2022/03/08 10:22:29;;;;;;;1.37;1.27;;;21.40;29.50;;;;;;4916449;29;20431;-71
2022/03/08 10:25:16;;;;;;;1.60;1.50;;;21.70;29.50;;;;;;4916394;29;20454;-70
2022/03/08 10:27:59;;;;;;;1.60;1.07;;;21.80;29.40;;;;;;4916349;29;20411;-70
2022/03/08 10:30:43;;;;;;;2.30;1.47;;;22.00;29.50;;;;;;4916667;29;20410;-71
2022/03/08 10:33:10;;;;;;;1.10;1.00;;;22.60;29.30;;;;;;4916115;29;20533;-71
2022/03/08 10:35:41;;;;;;;1.10;1.00;;;22.50;28.70;;;;;;4915848;29;20415;-71
2022/03/08 10:38:11;;;;;;;1.63;1.30;;;22.70;28.90;;;;;;4918143;29;20459;-71
2022/03/08 10:40:40;;;;;;;1.27;1.17;;;23.00;29.10;;;;;;4918180;29;20408;-71
2022/03/08 10:43:08;;;;;;;4.97;1.57;;;23.50;29.00;;;;;;4917837;29;20880;-71
2022/03/08 10:45:36;;;;;;;1.30;1.03;;;23.50;28.50;;;;;;4917864;29;20486;-70
2022/03/08 10:48:06;;;;;;;1.53;0.90;;;23.70;28.60;;;;;;4917516;29;20913;-71
2022/03/08 10:50:34;;;;;;;1.37;1.20;;;23.60;28.50;;;;;;4916158;29;20414;-70
2022/03/08 10:53:03;;;;;;;1.87;1.10;;;23.80;28.60;;;;;;4915627;29;20451;-70
2022/03/08 10:55:29;;;;;;;2.00;1.10;;;24.10;28.50;;;;;;4915597;29;20498;-71
2022/03/08 10:58:01;;;;;;;3.07;1.93;;;24.40;28.70;;;;;;4916267;29;20451;-71
2022/03/08 11:00:32;;;;;;;1.17;1.00;;;25.00;29.10;;;;;;4916296;29;20412;-71
2022/03/08 11:03:00;;;;;;;1.10;1.00;;;25.70;28.80;;;;;;4916221;29;20431;-71
2022/03/08 11:05:32;;;;;;;1.43;1.20;;;26.20;27.90;;;;;;4917395;29;20486;-70
2022/03/08 11:07:58;;;;;;;1.23;1.13;;;26.50;27.70;;;;;;4918389;29;20427;-70
2022/03/08 11:10:27;;;;;;;1.60;1.50;;;26.50;27.50;;;;;;4901098;29;20420;-70
2022/03/08 11:12:54;;;;;;;1.67;1.20;;;26.70;26.80;;;;;;4899162;29;20484;-71
2022/03/08 11:15:21;;;;;;;1.33;1.23;;;26.10;26.90;;;;;;4914313;29;20440;-71
2022/03/08 11:17:49;;;;;;;1.33;1.23;;;26.20;27.10;;;;;;4919206;29;20427;-71
2022/03/08 11:20:17;;;;;;;1.97;1.30;;;26.10;26.80;;;;;;4919894;29;20426;-71
2022/03/08 11:22:44;;;;;;;1.07;0.97;;;26.30;26.70;;;;;;4919664;29;20434;-71
2022/03/08 11:25:16;;;;;;;1.50;1.40;;;26.40;26.90;;;;;;4920474;29;20526;-70
2022/03/08 11:27:43;;;;;;;2.60;1.90;;;26.00;26.60;;;;;;4920992;29;20463;-71
2022/03/08 11:30:11;;;;;;;1.50;1.20;;;26.00;27.00;;;;;;4921207;29;20411;-71
2022/03/08 11:33:22;;;;;;;1.77;1.10;;;26.30;27.00;;;;;;4921843;29;20463;-70
2022/03/08 11:35:57;;;;;;;1.13;1.03;;;26.60;26.70;;;;;;4926834;29;20474;-70
2022/03/08 11:38:23;;;;;;;1.10;1.00;;;26.80;26.90;;;;;;4921354;29;20407;-70
2022/03/08 11:40:53;;;;;;;1.30;1.20;;;27.30;27.00;;;;;;4920055;29;20411;-71
2022/03/08 11:43:19;;;;;;;1.20;1.10;;;27.50;26.60;;;;;;4920444;29;20503;-71
2022/03/08 11:45:48;;;;;;;2.23;1.63;;;27.90;26.60;;;;;;4935621;28;20467;-71
2022/03/08 11:48:19;;;;;;;1.27;1.17;;;28.00;25.90;;;;;;4920811;29;20463;-71
2022/03/08 11:50:45;;;;;;;2.30;1.67;;;28.60;26.00;;;;;;4919411;28;20416;-71
2022/03/08 11:53:13;;;;;;;1.40;1.30;;;28.80;26.00;;;;;;4920737;29;20805;-71
2022/03/08 11:55:44;;;;;;;1.43;1.33;;;28.80;25.30;;;;;;4920802;29;20462;-71
2022/03/08 11:58:15;;;;;;;1.30;1.20;;;28.80;25.40;;;;;;4920496;29;20419;-71
2022/03/08 12:00:44;;;;;;;3.13;2.20;;;29.20;25.20;;;;;;4920396;29;20435;-71
2022/03/08 12:03:22;;;;;;;1.90;1.40;;;29.50;25.20;;;;;;4919638;29;20435;-71
2022/03/08 12:05:50;;;;;;;1.30;1.20;;;29.90;25.20;;;;;;4920648;29;20486;-71
2022/03/08 12:08:22;;;;;;;1.20;1.10;;;30.70;25.30;;;;;;4920825;29;20463;-71
2022/03/08 12:10:49;;;;;;;1.77;1.40;;;31.50;24.70;;;;;;4934140;28;20407;-71
2022/03/08 12:13:16;;;;;;;2.50;1.27;;;31.70;24.10;;;;;;4918539;29;20514;-71
2022/03/08 12:16:09;;;;;;;1.30;1.20;;;32.00;24.60;;;;;;4918285;29;20437;-71
2022/03/08 12:18:38;;;;;;;1.37;1.10;;;32.40;24.00;;;;;;4900844;29;20441;-71
2022/03/08 12:21:16;;;;;;;1.60;1.50;;;32.70;23.80;;;;;;4902274;29;20405;-71
2022/03/08 12:23:52;;;;;;;1.97;1.50;;;33.00;23.90;;;;;;4901553;29;20420;-71
2022/03/08 12:27:01;;;;;;;1.83;1.70;;;33.10;23.60;;;;;;4905856;29;20454;-71
2022/03/08 12:29:33;;;;;;;2.40;1.63;;;32.90;23.20;;;;;;4921188;29;20416;-71
2022/03/08 12:32:01;;;;;;;1.00;0.90;;;33.30;23.40;;;;;;4920513;29;20919;-71
2022/03/08 12:34:35;;;;;;;1.23;1.10;;;33.40;23.10;;;;;;4918894;29;20523;-71
2022/03/08 12:37:20;;;;;;;1.33;1.20;;;33.30;22.90;;;;;;4918007;29;20944;-71
2022/03/08 12:39:53;;;;;;;2.07;1.73;;;33.50;23.00;;;;;;4918626;29;20432;-71
2022/03/08 12:42:25;;;;;;;1.47;1.23;;;33.40;23.10;;;;;;4919235;29;20412;-71
2022/03/08 12:44:57;;;;;;;1.27;1.17;;;33.80;23.30;;;;;;4918848;29;20451;-71
2022/03/08 12:47:23;;;;;;;1.20;1.10;;;34.30;22.80;;;;;;4919924;29;20404;-72
2022/03/08 12:49:50;;;;;;;2.17;1.93;;;34.70;22.90;;;;;;4920322;29;20430;-71
2022/03/08 12:52:17;;;;;;;1.30;1.03;;;35.10;22.70;;;;;;4918853;29;20411;-72